sensor_id;sensor_type;location;lat;lon;timestamp;temperature;humidity
17399;DHT22;8817;48.170;8.592;2023-06-14T00:00:30;22.00;24.60
17399;DHT22;8817;48.170;8.592;2023-06-14T00:02:57;22.00;24.60
17399;DHT22;8817;48.170;8.592;2023-06-14T00:05:24;22.00;24.70
17399;DHT22;8817;48.170;8.592;2023-06-14T00:07:51;22.00;24.70
17399;DHT22;8817;48.170;8.592;2023-06-14T00:10:19;22.00;24.80
17399;DHT22;8817;48.170;8.592;2023-06-14T00:12:47;21.90;24.80
17399;DHT22;8817;48.170;8.592;2023-06-14T00:15:14;21.90;24.90
17399;DHT22;8817;48.170;8.592;2023-06-14T00:17:41;21.90;24.80
17399;DHT22;8817;48.170;8.592;2023-06-14T00:20:11;21.90;24.90
17399;DHT22;8817;48.170;8.592;2023-06-14T00:22:38;21.80;24.90
17399;DHT22;8817;48.170;8.592;2023-06-14T00:25:05;21.80;24.90
17399;DHT22;8817;48.170;8.592;2023-06-14T00:27:32;21.80;25.00
17399;DHT22;8817;48.170;8.592;2023-06-14T00:30:01;21.80;25.00
17399;DHT22;8817;48.170;8.592;2023-06-14T00:32:27;21.80;25.10
17399;DHT22;8817;48.170;8.592;2023-06-14T00:34:54;21.70;25.10
17399;DHT22;8817;48.170;8.592;2023-06-14T00:37:21;21.70;25.10
17399;DHT22;8817;48.170;8.592;2023-06-14T00:39:48;21.70;25.20
17399;DHT22;8817;48.170;8.592;2023-06-14T00:42:23;21.70;25.20
17399;DHT22;8817;48.170;8.592;2023-06-14T00:44:51;21.60;25.30
17399;DHT22;8817;48.170;8.592;2023-06-14T00:47:19;21.60;25.20
17399;DHT22;8817;48.170;8.592;2023-06-14T00:49:47;21.60;25.30
17399;DHT22;8817;48.170;8.592;2023-06-14T00:52:14;21.50;25.30
17399;DHT22;8817;48.170;8.592;2023-06-14T00:54:42;21.50;25.30
17399;DHT22;8817;48.170;8.592;2023-06-14T00:57:09;21.50;25.30
17399;DHT22;8817;48.170;8.592;2023-06-14T00:59:45;21.50;25.40
17399;DHT22;8817;48.170;8.592;2023-06-14T01:02:12;21.40;25.40
17399;DHT22;8817;48.170;8.592;2023-06-14T01:04:43;21.40;25.40
17399;DHT22;8817;48.170;8.592;2023-06-14T01:07:21;21.40;25.50
17399;DHT22;8817;48.170;8.592;2023-06-14T01:10:03;21.30;25.50
17399;DHT22;8817;48.170;8.592;2023-06-14T01:12:39;21.40;25.60
17399;DHT22;8817;48.170;8.592;2023-06-14T01:15:13;21.30;25.50
17399;DHT22;8817;48.170;8.592;2023-06-14T01:17:40;21.30;25.60
17399;DHT22;8817;48.170;8.592;2023-06-14T01:20:12;21.20;25.60
17399;DHT22;8817;48.170;8.592;2023-06-14T01:22:51;21.20;25.60
17399;DHT22;8817;48.170;8.592;2023-06-14T01:25:19;21.20;25.70
17399;DHT22;8817;48.170;8.592;2023-06-14T01:27:49;21.20;25.70
17399;DHT22;8817;48.170;8.592;2023-06-14T01:30:17;21.20;25.70
17399;DHT22;8817;48.170;8.592;2023-06-14T01:32:45;21.10;25.70
17399;DHT22;8817;48.170;8.592;2023-06-14T01:35:13;21.10;25.70
17399;DHT22;8817;48.170;8.592;2023-06-14T01:37:40;21.10;25.70
17399;DHT22;8817;48.170;8.592;2023-06-14T01:40:11;21.10;25.80
17399;DHT22;8817;48.170;8.592;2023-06-14T01:42:38;21.10;25.80
17399;DHT22;8817;48.170;8.592;2023-06-14T01:45:07;21.00;25.80
17399;DHT22;8817;48.170;8.592;2023-06-14T01:47:34;21.00;25.80
17399;DHT22;8817;48.170;8.592;2023-06-14T01:50:02;20.90;25.80
17399;DHT22;8817;48.170;8.592;2023-06-14T01:52:29;20.90;25.80
17399;DHT22;8817;48.170;8.592;2023-06-14T01:54:56;20.90;25.80
17399;DHT22;8817;48.170;8.592;2023-06-14T01:57:25;20.90;25.90
17399;DHT22;8817;48.170;8.592;2023-06-14T01:59:52;20.80;25.90
17399;DHT22;8817;48.170;8.592;2023-06-14T02:02:19;20.80;25.90
17399;DHT22;8817;48.170;8.592;2023-06-14T02:04:46;20.80;26.00
17399;DHT22;8817;48.170;8.592;2023-06-14T02:07:14;20.80;26.00
17399;DHT22;8817;48.170;8.592;2023-06-14T02:09:41;20.80;26.00
17399;DHT22;8817;48.170;8.592;2023-06-14T02:12:08;20.80;26.10
17399;DHT22;8817;48.170;8.592;2023-06-14T02:14:37;20.70;26.10
17399;DHT22;8817;48.170;8.592;2023-06-14T02:17:05;20.70;26.10
17399;DHT22;8817;48.170;8.592;2023-06-14T02:19:32;20.70;26.10
17399;DHT22;8817;48.170;8.592;2023-06-14T02:21:59;20.60;26.10
17399;DHT22;8817;48.170;8.592;2023-06-14T02:24:26;20.60;26.20
17399;DHT22;8817;48.170;8.592;2023-06-14T02:26:53;20.60;26.20
17399;DHT22;8817;48.170;8.592;2023-06-14T02:29:20;20.60;26.20
17399;DHT22;8817;48.170;8.592;2023-06-14T02:31:51;20.50;26.20
17399;DHT22;8817;48.170;8.592;2023-06-14T02:34:17;20.50;26.30
17399;DHT22;8817;48.170;8.592;2023-06-14T02:36:45;20.40;26.30
17399;DHT22;8817;48.170;8.592;2023-06-14T02:39:13;20.40;26.30
17399;DHT22;8817;48.170;8.592;2023-06-14T02:41:40;20.40;26.30
17399;DHT22;8817;48.170;8.592;2023-06-14T02:44:07;20.40;26.40
17399;DHT22;8817;48.170;8.592;2023-06-14T02:46:34;20.40;26.40
17399;DHT22;8817;48.170;8.592;2023-06-14T02:49:02;20.40;26.50
17399;DHT22;8817;48.170;8.592;2023-06-14T02:51:29;20.30;26.50
17399;DHT22;8817;48.170;8.592;2023-06-14T02:53:56;20.30;26.50
17399;DHT22;8817;48.170;8.592;2023-06-14T02:56:23;20.30;26.60
17399;DHT22;8817;48.170;8.592;2023-06-14T02:58:51;20.30;26.60
17399;DHT22;8817;48.170;8.592;2023-06-14T03:01:18;20.30;26.60
17399;DHT22;8817;48.170;8.592;2023-06-14T03:03:46;20.30;26.60
17399;DHT22;8817;48.170;8.592;2023-06-14T03:06:14;20.30;26.70
17399;DHT22;8817;48.170;8.592;2023-06-14T03:08:42;20.30;26.70
17399;DHT22;8817;48.170;8.592;2023-06-14T03:11:09;20.30;26.70
17399;DHT22;8817;48.170;8.592;2023-06-14T03:13:36;20.30;26.70
17399;DHT22;8817;48.170;8.592;2023-06-14T03:16:04;20.30;26.70
17399;DHT22;8817;48.170;8.592;2023-06-14T03:18:32;20.20;26.80
17399;DHT22;8817;48.170;8.592;2023-06-14T03:21:01;20.20;26.80
17399;DHT22;8817;48.170;8.592;2023-06-14T03:23:29;20.20;26.80
17399;DHT22;8817;48.170;8.592;2023-06-14T03:25:56;20.20;26.80
17399;DHT22;8817;48.170;8.592;2023-06-14T03:28:23;20.10;26.80
17399;DHT22;8817;48.170;8.592;2023-06-14T03:30:51;20.10;26.90
17399;DHT22;8817;48.170;8.592;2023-06-14T03:33:18;20.10;26.90
17399;DHT22;8817;48.170;8.592;2023-06-14T03:35:45;20.10;26.90
17399;DHT22;8817;48.170;8.592;2023-06-14T03:38:12;20.10;27.00
17399;DHT22;8817;48.170;8.592;2023-06-14T03:40:40;20.10;27.00
17399;DHT22;8817;48.170;8.592;2023-06-14T03:43:07;20.00;27.00
17399;DHT22;8817;48.170;8.592;2023-06-14T03:45:34;20.00;27.00
17399;DHT22;8817;48.170;8.592;2023-06-14T03:48:01;20.00;27.10
17399;DHT22;8817;48.170;8.592;2023-06-14T03:50:28;20.00;27.10
17399;DHT22;8817;48.170;8.592;2023-06-14T03:52:55;20.00;27.10
17399;DHT22;8817;48.170;8.592;2023-06-14T03:55:22;20.00;27.20
17399;DHT22;8817;48.170;8.592;2023-06-14T03:57:52;20.00;27.20
17399;DHT22;8817;48.170;8.592;2023-06-14T04:00:19;20.00;27.30
17399;DHT22;8817;48.170;8.592;2023-06-14T04:02:46;20.00;27.30
17399;DHT22;8817;48.170;8.592;2023-06-14T04:05:13;20.00;27.30
17399;DHT22;8817;48.170;8.592;2023-06-14T04:07:41;19.90;27.30
17399;DHT22;8817;48.170;8.592;2023-06-14T04:10:11;20.00;27.40
17399;DHT22;8817;48.170;8.592;2023-06-14T04:12:38;20.00;27.50
17399;DHT22;8817;48.170;8.592;2023-06-14T04:15:08;19.90;27.50
17399;DHT22;8817;48.170;8.592;2023-06-14T04:17:35;19.90;27.50
17399;DHT22;8817;48.170;8.592;2023-06-14T04:20:03;19.90;27.50
17399;DHT22;8817;48.170;8.592;2023-06-14T04:22:31;20.00;27.60
17399;DHT22;8817;48.170;8.592;2023-06-14T04:24:58;20.00;27.60
17399;DHT22;8817;48.170;8.592;2023-06-14T04:27:26;20.00;27.70
17399;DHT22;8817;48.170;8.592;2023-06-14T04:29:54;19.90;28.10
17399;DHT22;8817;48.170;8.592;2023-06-14T04:32:25;20.00;27.80
17399;DHT22;8817;48.170;8.592;2023-06-14T04:34:53;20.00;27.90
17399;DHT22;8817;48.170;8.592;2023-06-14T04:37:21;20.00;27.90
17399;DHT22;8817;48.170;8.592;2023-06-14T04:39:48;20.00;27.90
17399;DHT22;8817;48.170;8.592;2023-06-14T04:42:15;20.10;28.00
17399;DHT22;8817;48.170;8.592;2023-06-14T04:44:46;20.00;28.00
17399;DHT22;8817;48.170;8.592;2023-06-14T04:47:14;20.10;28.10
17399;DHT22;8817;48.170;8.592;2023-06-14T04:49:43;20.10;28.10
17399;DHT22;8817;48.170;8.592;2023-06-14T04:52:11;20.20;28.30
17399;DHT22;8817;48.170;8.592;2023-06-14T04:54:38;20.20;28.20
17399;DHT22;8817;48.170;8.592;2023-06-14T04:57:07;20.30;28.40
17399;DHT22;8817;48.170;8.592;2023-06-14T04:59:39;20.30;28.40
17399;DHT22;8817;48.170;8.592;2023-06-14T05:02:06;20.40;28.50
17399;DHT22;8817;48.170;8.592;2023-06-14T05:04:34;20.50;28.50
17399;DHT22;8817;48.170;8.592;2023-06-14T05:07:06;20.60;28.60
17399;DHT22;8817;48.170;8.592;2023-06-14T05:09:33;20.60;28.60
17399;DHT22;8817;48.170;8.592;2023-06-14T05:12:00;20.70;28.70
17399;DHT22;8817;48.170;8.592;2023-06-14T05:14:27;20.80;28.80
17399;DHT22;8817;48.170;8.592;2023-06-14T05:16:54;20.90;28.90
17399;DHT22;8817;48.170;8.592;2023-06-14T05:19:21;21.00;29.00
17399;DHT22;8817;48.170;8.592;2023-06-14T05:21:48;21.10;29.10
17399;DHT22;8817;48.170;8.592;2023-06-14T05:24:16;21.20;29.10
17399;DHT22;8817;48.170;8.592;2023-06-14T05:26:44;21.30;29.20
17399;DHT22;8817;48.170;8.592;2023-06-14T05:29:10;21.40;29.10
17399;DHT22;8817;48.170;8.592;2023-06-14T05:31:37;21.60;29.20
17399;DHT22;8817;48.170;8.592;2023-06-14T05:34:04;21.70;29.20
17399;DHT22;8817;48.170;8.592;2023-06-14T05:36:31;21.80;29.30
17399;DHT22;8817;48.170;8.592;2023-06-14T05:38:58;21.90;29.30
17399;DHT22;8817;48.170;8.592;2023-06-14T05:41:27;22.00;29.30
17399;DHT22;8817;48.170;8.592;2023-06-14T05:43:55;22.20;29.40
17399;DHT22;8817;48.170;8.592;2023-06-14T05:46:22;22.30;29.30
17399;DHT22;8817;48.170;8.592;2023-06-14T05:48:51;22.40;29.30
17399;DHT22;8817;48.170;8.592;2023-06-14T05:51:18;22.50;29.30
17399;DHT22;8817;48.170;8.592;2023-06-14T05:53:45;22.60;29.30
17399;DHT22;8817;48.170;8.592;2023-06-14T05:56:12;22.70;29.30
17399;DHT22;8817;48.170;8.592;2023-06-14T05:58:41;22.80;29.30
17399;DHT22;8817;48.170;8.592;2023-06-14T06:01:08;22.90;29.80
17399;DHT22;8817;48.170;8.592;2023-06-14T06:03:35;23.00;29.30
17399;DHT22;8817;48.170;8.592;2023-06-14T06:06:02;23.10;29.80
17399;DHT22;8817;48.170;8.592;2023-06-14T06:08:29;23.20;29.40
17399;DHT22;8817;48.170;8.592;2023-06-14T06:10:56;23.30;29.40
17399;DHT22;8817;48.170;8.592;2023-06-14T06:13:23;23.30;29.40
17399;DHT22;8817;48.170;8.592;2023-06-14T06:15:52;23.40;29.30
17399;DHT22;8817;48.170;8.592;2023-06-14T06:18:18;23.50;29.30
17399;DHT22;8817;48.170;8.592;2023-06-14T06:20:45;23.60;29.30
17399;DHT22;8817;48.170;8.592;2023-06-14T06:23:13;23.70;29.30
17399;DHT22;8817;48.170;8.592;2023-06-14T06:25:39;23.80;29.30
17399;DHT22;8817;48.170;8.592;2023-06-14T06:28:07;23.90;29.30
17399;DHT22;8817;48.170;8.592;2023-06-14T06:30:34;24.00;29.30
17399;DHT22;8817;48.170;8.592;2023-06-14T06:33:03;24.10;29.30
17399;DHT22;8817;48.170;8.592;2023-06-14T06:35:30;24.10;29.30
17399;DHT22;8817;48.170;8.592;2023-06-14T06:37:58;24.20;29.70
17399;DHT22;8817;48.170;8.592;2023-06-14T06:40:25;24.30;29.30
17399;DHT22;8817;48.170;8.592;2023-06-14T06:42:52;24.40;29.30
17399;DHT22;8817;48.170;8.592;2023-06-14T06:45:20;24.40;29.30
17399;DHT22;8817;48.170;8.592;2023-06-14T06:47:48;24.50;29.30
17399;DHT22;8817;48.170;8.592;2023-06-14T06:50:18;24.60;29.30
17399;DHT22;8817;48.170;8.592;2023-06-14T06:52:45;24.70;29.30
17399;DHT22;8817;48.170;8.592;2023-06-14T06:55:12;24.70;29.80
17399;DHT22;8817;48.170;8.592;2023-06-14T06:57:39;24.80;29.30
17399;DHT22;8817;48.170;8.592;2023-06-14T07:00:07;24.90;29.30
17399;DHT22;8817;48.170;8.592;2023-06-14T07:02:35;24.90;29.30
17399;DHT22;8817;48.170;8.592;2023-06-14T07:05:02;25.00;29.30
17399;DHT22;8817;48.170;8.592;2023-06-14T07:07:31;25.10;29.30
17399;DHT22;8817;48.170;8.592;2023-06-14T07:09:58;25.10;29.30
17399;DHT22;8817;48.170;8.592;2023-06-14T07:12:26;25.20;29.30
17399;DHT22;8817;48.170;8.592;2023-06-14T07:14:52;25.30;29.30
17399;DHT22;8817;48.170;8.592;2023-06-14T07:17:19;25.40;29.40
17399;DHT22;8817;48.170;8.592;2023-06-14T07:19:46;25.40;29.30
17399;DHT22;8817;48.170;8.592;2023-06-14T07:22:13;25.50;29.30
17399;DHT22;8817;48.170;8.592;2023-06-14T07:24:41;25.50;29.30
17399;DHT22;8817;48.170;8.592;2023-06-14T07:27:08;25.60;29.30
17399;DHT22;8817;48.170;8.592;2023-06-14T07:29:36;25.70;29.30
17399;DHT22;8817;48.170;8.592;2023-06-14T07:32:04;25.80;29.40
17399;DHT22;8817;48.170;8.592;2023-06-14T07:34:31;25.90;29.40
17399;DHT22;8817;48.170;8.592;2023-06-14T07:36:57;25.90;29.40
17399;DHT22;8817;48.170;8.592;2023-06-14T07:39:24;26.00;29.40
17399;DHT22;8817;48.170;8.592;2023-06-14T07:41:52;26.00;29.40
17399;DHT22;8817;48.170;8.592;2023-06-14T07:44:19;26.10;29.40
17399;DHT22;8817;48.170;8.592;2023-06-14T07:46:46;26.20;29.50
17399;DHT22;8817;48.170;8.592;2023-06-14T07:49:14;26.20;29.50
17399;DHT22;8817;48.170;8.592;2023-06-14T07:51:41;26.30;29.50
17399;DHT22;8817;48.170;8.592;2023-06-14T07:54:09;26.40;29.50
17399;DHT22;8817;48.170;8.592;2023-06-14T07:56:36;26.40;29.50
17399;DHT22;8817;48.170;8.592;2023-06-14T07:59:05;26.50;29.50
17399;DHT22;8817;48.170;8.592;2023-06-14T08:01:32;26.50;29.50
17399;DHT22;8817;48.170;8.592;2023-06-14T08:03:59;26.60;29.60
17399;DHT22;8817;48.170;8.592;2023-06-14T08:06:26;26.60;29.60
17399;DHT22;8817;48.170;8.592;2023-06-14T08:08:53;26.70;29.60
17399;DHT22;8817;48.170;8.592;2023-06-14T08:11:20;26.70;29.60
17399;DHT22;8817;48.170;8.592;2023-06-14T08:13:49;26.80;29.60
17399;DHT22;8817;48.170;8.592;2023-06-14T08:16:17;26.90;29.70
17399;DHT22;8817;48.170;8.592;2023-06-14T08:18:44;26.90;29.60
17399;DHT22;8817;48.170;8.592;2023-06-14T08:21:11;27.00;29.60
17399;DHT22;8817;48.170;8.592;2023-06-14T08:23:40;27.00;29.50
17399;DHT22;8817;48.170;8.592;2023-06-14T08:26:08;27.10;29.50
17399;DHT22;8817;48.170;8.592;2023-06-14T08:28:35;27.20;29.50
17399;DHT22;8817;48.170;8.592;2023-06-14T08:31:02;27.30;29.60
17399;DHT22;8817;48.170;8.592;2023-06-14T08:33:30;27.40;29.60
17399;DHT22;8817;48.170;8.592;2023-06-14T08:35:59;27.40;29.60
17399;DHT22;8817;48.170;8.592;2023-06-14T08:38:26;27.50;29.60
17399;DHT22;8817;48.170;8.592;2023-06-14T08:40:57;27.60;29.60
17399;DHT22;8817;48.170;8.592;2023-06-14T08:43:24;27.70;30.00
17399;DHT22;8817;48.170;8.592;2023-06-14T08:45:53;27.80;29.60
17399;DHT22;8817;48.170;8.592;2023-06-14T08:48:26;27.90;29.60
17399;DHT22;8817;48.170;8.592;2023-06-14T08:50:55;28.00;29.60
17399;DHT22;8817;48.170;8.592;2023-06-14T08:53:28;28.10;29.50
17399;DHT22;8817;48.170;8.592;2023-06-14T08:55:57;28.20;29.50
17399;DHT22;8817;48.170;8.592;2023-06-14T08:58:27;28.30;29.40
17399;DHT22;8817;48.170;8.592;2023-06-14T09:00:55;28.40;29.40
17399;DHT22;8817;48.170;8.592;2023-06-14T09:03:23;28.50;29.40
17399;DHT22;8817;48.170;8.592;2023-06-14T09:05:56;28.60;29.40
17399;DHT22;8817;48.170;8.592;2023-06-14T09:08:25;28.60;29.30
17399;DHT22;8817;48.170;8.592;2023-06-14T09:10:52;28.80;29.20
17399;DHT22;8817;48.170;8.592;2023-06-14T09:13:19;28.80;29.20
17399;DHT22;8817;48.170;8.592;2023-06-14T09:15:46;28.80;29.10
17399;DHT22;8817;48.170;8.592;2023-06-14T09:18:13;29.00;29.10
17399;DHT22;8817;48.170;8.592;2023-06-14T09:20:40;29.00;29.00
17399;DHT22;8817;48.170;8.592;2023-06-14T09:23:09;29.10;28.90
17399;DHT22;8817;48.170;8.592;2023-06-14T09:25:42;29.10;28.80
17399;DHT22;8817;48.170;8.592;2023-06-14T09:28:10;29.10;28.80
17399;DHT22;8817;48.170;8.592;2023-06-14T09:30:37;29.20;28.80
17399;DHT22;8817;48.170;8.592;2023-06-14T09:33:04;29.30;28.80
17399;DHT22;8817;48.170;8.592;2023-06-14T09:35:32;29.30;28.80
17399;DHT22;8817;48.170;8.592;2023-06-14T09:37:59;29.30;28.70
17399;DHT22;8817;48.170;8.592;2023-06-14T09:40:27;29.40;28.80
17399;DHT22;8817;48.170;8.592;2023-06-14T09:42:54;29.40;28.70
17399;DHT22;8817;48.170;8.592;2023-06-14T09:45:23;29.50;28.70
17399;DHT22;8817;48.170;8.592;2023-06-14T09:47:51;29.70;28.70
17399;DHT22;8817;48.170;8.592;2023-06-14T09:50:18;29.70;28.70
17399;DHT22;8817;48.170;8.592;2023-06-14T09:52:46;29.80;29.00
17399;DHT22;8817;48.170;8.592;2023-06-14T09:55:16;29.80;28.60
17399;DHT22;8817;48.170;8.592;2023-06-14T09:57:45;29.90;28.60
17399;DHT22;8817;48.170;8.592;2023-06-14T10:00:15;30.00;28.50
17399;DHT22;8817;48.170;8.592;2023-06-14T10:02:51;30.10;29.00
17399;DHT22;8817;48.170;8.592;2023-06-14T10:05:21;30.10;28.50
17399;DHT22;8817;48.170;8.592;2023-06-14T10:07:53;30.20;28.50
17399;DHT22;8817;48.170;8.592;2023-06-14T10:10:20;30.30;28.40
17399;DHT22;8817;48.170;8.592;2023-06-14T10:12:48;30.40;28.90
17399;DHT22;8817;48.170;8.592;2023-06-14T10:15:19;30.40;28.40
17399;DHT22;8817;48.170;8.592;2023-06-14T10:17:50;30.50;28.40
17399;DHT22;8817;48.170;8.592;2023-06-14T10:20:27;30.50;28.40
17399;DHT22;8817;48.170;8.592;2023-06-14T10:22:58;30.60;28.20
17399;DHT22;8817;48.170;8.592;2023-06-14T10:25:27;30.60;28.50
17399;DHT22;8817;48.170;8.592;2023-06-14T10:28:14;30.70;28.40
17399;DHT22;8817;48.170;8.592;2023-06-14T10:31:01;30.80;28.40
17399;DHT22;8817;48.170;8.592;2023-06-14T10:33:29;30.80;28.30
17399;DHT22;8817;48.170;8.592;2023-06-14T10:36:10;30.90;28.30
17399;DHT22;8817;48.170;8.592;2023-06-14T10:38:37;31.00;28.30
17399;DHT22;8817;48.170;8.592;2023-06-14T10:41:05;31.00;28.20
17399;DHT22;8817;48.170;8.592;2023-06-14T10:43:34;31.10;28.20
17399;DHT22;8817;48.170;8.592;2023-06-14T10:46:22;31.20;28.20
17399;DHT22;8817;48.170;8.592;2023-06-14T10:48:57;31.20;28.20
17399;DHT22;8817;48.170;8.592;2023-06-14T10:51:24;31.30;28.10
17399;DHT22;8817;48.170;8.592;2023-06-14T10:53:52;31.30;27.90
17399;DHT22;8817;48.170;8.592;2023-06-14T10:56:29;31.30;28.00
17399;DHT22;8817;48.170;8.592;2023-06-14T10:58:58;31.30;28.00
17399;DHT22;8817;48.170;8.592;2023-06-14T11:01:37;31.30;27.90
17399;DHT22;8817;48.170;8.592;2023-06-14T11:04:08;31.40;28.00
17399;DHT22;8817;48.170;8.592;2023-06-14T11:06:45;31.40;27.90
17399;DHT22;8817;48.170;8.592;2023-06-14T11:09:51;31.40;27.90
17399;DHT22;8817;48.170;8.592;2023-06-14T11:12:26;31.50;28.00
17399;DHT22;8817;48.170;8.592;2023-06-14T11:14:56;31.60;28.00
17399;DHT22;8817;48.170;8.592;2023-06-14T11:17:23;31.60;27.90
17399;DHT22;8817;48.170;8.592;2023-06-14T11:19:50;31.60;27.90
17399;DHT22;8817;48.170;8.592;2023-06-14T11:22:16;31.70;27.90
17399;DHT22;8817;48.170;8.592;2023-06-14T11:24:43;31.80;28.00
17399;DHT22;8817;48.170;8.592;2023-06-14T11:27:10;31.80;28.00
17399;DHT22;8817;48.170;8.592;2023-06-14T11:29:38;31.90;27.80
17399;DHT22;8817;48.170;8.592;2023-06-14T11:32:08;32.00;27.70
17399;DHT22;8817;48.170;8.592;2023-06-14T11:34:37;32.00;27.60
17399;DHT22;8817;48.170;8.592;2023-06-14T11:37:05;32.00;27.50
17399;DHT22;8817;48.170;8.592;2023-06-14T11:39:32;32.00;27.40
17399;DHT22;8817;48.170;8.592;2023-06-14T11:41:59;32.00;27.50
17399;DHT22;8817;48.170;8.592;2023-06-14T11:44:26;32.00;27.50
17399;DHT22;8817;48.170;8.592;2023-06-14T11:46:54;32.10;27.50
17399;DHT22;8817;48.170;8.592;2023-06-14T11:49:24;32.20;27.60
17399;DHT22;8817;48.170;8.592;2023-06-14T11:51:53;32.20;27.60
17399;DHT22;8817;48.170;8.592;2023-06-14T11:54:20;32.30;27.50
17399;DHT22;8817;48.170;8.592;2023-06-14T11:56:47;32.30;27.50
17399;DHT22;8817;48.170;8.592;2023-06-14T11:59:14;32.40;27.40
17399;DHT22;8817;48.170;8.592;2023-06-14T12:01:43;32.40;27.40
17399;DHT22;8817;48.170;8.592;2023-06-14T12:04:10;32.40;27.40
17399;DHT22;8817;48.170;8.592;2023-06-14T12:06:39;32.50;27.40
17399;DHT22;8817;48.170;8.592;2023-06-14T12:09:07;32.50;27.20
17399;DHT22;8817;48.170;8.592;2023-06-14T12:11:38;32.50;27.20
17399;DHT22;8817;48.170;8.592;2023-06-14T12:14:05;32.60;27.30
17399;DHT22;8817;48.170;8.592;2023-06-14T12:16:33;32.70;27.30
17399;DHT22;8817;48.170;8.592;2023-06-14T12:19:07;32.70;27.20
17399;DHT22;8817;48.170;8.592;2023-06-14T12:21:37;32.70;27.10
17399;DHT22;8817;48.170;8.592;2023-06-14T12:24:07;32.80;27.00
17399;DHT22;8817;48.170;8.592;2023-06-14T12:26:38;32.80;27.40
17399;DHT22;8817;48.170;8.592;2023-06-14T12:29:06;32.80;27.00
17399;DHT22;8817;48.170;8.592;2023-06-14T12:31:33;32.80;27.00
17399;DHT22;8817;48.170;8.592;2023-06-14T12:34:00;32.80;26.90
17399;DHT22;8817;48.170;8.592;2023-06-14T12:36:27;32.90;27.00
17399;DHT22;8817;48.170;8.592;2023-06-14T12:38:54;32.90;26.90
17399;DHT22;8817;48.170;8.592;2023-06-14T12:41:23;33.00;27.00
17399;DHT22;8817;48.170;8.592;2023-06-14T12:43:50;33.00;26.90
17399;DHT22;8817;48.170;8.592;2023-06-14T12:46:17;33.00;26.90
17399;DHT22;8817;48.170;8.592;2023-06-14T12:48:44;33.10;27.00
17399;DHT22;8817;48.170;8.592;2023-06-14T12:51:11;33.20;27.00
17399;DHT22;8817;48.170;8.592;2023-06-14T12:53:37;33.20;26.90
17399;DHT22;8817;48.170;8.592;2023-06-14T12:56:05;33.20;26.70
17399;DHT22;8817;48.170;8.592;2023-06-14T12:58:33;33.30;26.60
17399;DHT22;8817;48.170;8.592;2023-06-14T13:01:00;33.20;26.50
17399;DHT22;8817;48.170;8.592;2023-06-14T13:03:27;33.20;26.50
17399;DHT22;8817;48.170;8.592;2023-06-14T13:05:54;33.30;26.70
17399;DHT22;8817;48.170;8.592;2023-06-14T13:08:21;33.30;26.60
17399;DHT22;8817;48.170;8.592;2023-06-14T13:10:48;33.20;26.50
17399;DHT22;8817;48.170;8.592;2023-06-14T13:13:15;33.30;26.60
17399;DHT22;8817;48.170;8.592;2023-06-14T13:15:43;33.30;26.60
17399;DHT22;8817;48.170;8.592;2023-06-14T13:18:11;33.40;26.60
17399;DHT22;8817;48.170;8.592;2023-06-14T13:20:38;33.40;26.60
17399;DHT22;8817;48.170;8.592;2023-06-14T13:23:05;33.40;26.60
17399;DHT22;8817;48.170;8.592;2023-06-14T13:25:33;33.40;26.70
17399;DHT22;8817;48.170;8.592;2023-06-14T13:28:00;33.50;26.70
17399;DHT22;8817;48.170;8.592;2023-06-14T13:30:27;33.50;26.70
17399;DHT22;8817;48.170;8.592;2023-06-14T13:32:55;33.60;26.80
17399;DHT22;8817;48.170;8.592;2023-06-14T13:35:23;33.70;26.80
17399;DHT22;8817;48.170;8.592;2023-06-14T13:37:50;33.80;26.70
17399;DHT22;8817;48.170;8.592;2023-06-14T13:40:16;33.80;26.60
17399;DHT22;8817;48.170;8.592;2023-06-14T13:42:44;33.80;26.50
17399;DHT22;8817;48.170;8.592;2023-06-14T13:45:12;33.90;26.40
17399;DHT22;8817;48.170;8.592;2023-06-14T13:47:39;33.80;26.20
17399;DHT22;8817;48.170;8.592;2023-06-14T13:50:08;33.80;26.20
17399;DHT22;8817;48.170;8.592;2023-06-14T13:52:35;33.80;26.10
17399;DHT22;8817;48.170;8.592;2023-06-14T13:55:02;33.70;26.10
17399;DHT22;8817;48.170;8.592;2023-06-14T13:57:29;33.70;26.10
17399;DHT22;8817;48.170;8.592;2023-06-14T13:59:56;33.70;26.30
17399;DHT22;8817;48.170;8.592;2023-06-14T14:02:26;33.70;26.20
17399;DHT22;8817;48.170;8.592;2023-06-14T14:04:54;33.70;26.20
17399;DHT22;8817;48.170;8.592;2023-06-14T14:07:22;33.80;26.30
17399;DHT22;8817;48.170;8.592;2023-06-14T14:09:49;33.80;26.20
17399;DHT22;8817;48.170;8.592;2023-06-14T14:12:16;33.80;26.10
17399;DHT22;8817;48.170;8.592;2023-06-14T14:14:43;33.80;26.20
17399;DHT22;8817;48.170;8.592;2023-06-14T14:17:11;33.80;26.20
17399;DHT22;8817;48.170;8.592;2023-06-14T14:19:38;33.80;26.10
17399;DHT22;8817;48.170;8.592;2023-06-14T14:22:05;33.90;26.20
17399;DHT22;8817;48.170;8.592;2023-06-14T14:24:34;33.90;26.10
17399;DHT22;8817;48.170;8.592;2023-06-14T14:27:02;33.90;26.00
17399;DHT22;8817;48.170;8.592;2023-06-14T14:29:29;33.90;26.00
17399;DHT22;8817;48.170;8.592;2023-06-14T14:31:56;34.00;26.00
17399;DHT22;8817;48.170;8.592;2023-06-14T14:34:23;34.00;25.90
17399;DHT22;8817;48.170;8.592;2023-06-14T14:36:50;34.00;25.90
17399;DHT22;8817;48.170;8.592;2023-06-14T14:39:17;34.00;26.00
17399;DHT22;8817;48.170;8.592;2023-06-14T14:41:45;34.00;26.00
17399;DHT22;8817;48.170;8.592;2023-06-14T14:44:12;34.10;26.00
17399;DHT22;8817;48.170;8.592;2023-06-14T14:46:39;34.10;25.90
17399;DHT22;8817;48.170;8.592;2023-06-14T14:49:07;34.10;25.90
17399;DHT22;8817;48.170;8.592;2023-06-14T14:51:34;34.10;25.90
17399;DHT22;8817;48.170;8.592;2023-06-14T14:54:00;34.10;25.80
17399;DHT22;8817;48.170;8.592;2023-06-14T14:56:27;34.10;25.80
17399;DHT22;8817;48.170;8.592;2023-06-14T14:58:55;34.10;25.80
17399;DHT22;8817;48.170;8.592;2023-06-14T15:01:22;34.10;25.70
17399;DHT22;8817;48.170;8.592;2023-06-14T15:03:49;34.10;25.60
17399;DHT22;8817;48.170;8.592;2023-06-14T15:06:16;34.00;25.60
17399;DHT22;8817;48.170;8.592;2023-06-14T15:08:43;34.00;25.60
17399;DHT22;8817;48.170;8.592;2023-06-14T15:11:10;33.90;25.50
17399;DHT22;8817;48.170;8.592;2023-06-14T15:13:37;33.90;25.50
17399;DHT22;8817;48.170;8.592;2023-06-14T15:16:05;33.90;25.50
17399;DHT22;8817;48.170;8.592;2023-06-14T15:18:32;33.90;25.50
17399;DHT22;8817;48.170;8.592;2023-06-14T15:20:59;33.90;25.50
17399;DHT22;8817;48.170;8.592;2023-06-14T15:23:26;33.80;25.40
17399;DHT22;8817;48.170;8.592;2023-06-14T15:25:53;33.80;25.30
17399;DHT22;8817;48.170;8.592;2023-06-14T15:28:20;33.80;25.40
17399;DHT22;8817;48.170;8.592;2023-06-14T15:30:48;33.80;25.30
17399;DHT22;8817;48.170;8.592;2023-06-14T15:33:16;33.80;25.30
17399;DHT22;8817;48.170;8.592;2023-06-14T15:35:43;33.70;25.70
17399;DHT22;8817;48.170;8.592;2023-06-14T15:38:10;33.70;25.10
17399;DHT22;8817;48.170;8.592;2023-06-14T15:40:36;33.50;25.00
17399;DHT22;8817;48.170;8.592;2023-06-14T15:43:03;33.50;25.00
17399;DHT22;8817;48.170;8.592;2023-06-14T15:45:30;33.40;25.00
17399;DHT22;8817;48.170;8.592;2023-06-14T15:47:57;33.20;25.40
17399;DHT22;8817;48.170;8.592;2023-06-14T15:50:27;33.10;25.00